createdAt,value
2023-01-18T00:00:08.322Z,7.05
2023-01-18T00:02:35.459Z,7.60
2023-01-18T00:05:01.762Z,8.48
2023-01-18T00:07:28.047Z,6.75
2023-01-18T00:09:54.311Z,7.22
2023-01-18T00:12:20.569Z,10.73
2023-01-18T00:14:46.820Z,5.75
2023-01-18T00:17:13.124Z,10.32
2023-01-18T00:19:39.520Z,8.50
2023-01-18T00:22:05.838Z,12.52
2023-01-18T00:24:32.084Z,10.38
2023-01-18T00:26:58.431Z,8.20
2023-01-18T00:29:25.388Z,7.70
2023-01-18T00:31:51.752Z,9.30
2023-01-18T00:34:18.104Z,9.70
2023-01-18T00:36:44.390Z,8.52
2023-01-18T00:39:12.790Z,9.63
2023-01-18T00:41:59.015Z,13.80
2023-01-18T00:44:25.265Z,13.38
2023-01-18T00:46:51.597Z,8.52
2023-01-18T00:49:17.859Z,9.98
2023-01-18T00:51:44.113Z,10.75
2023-01-18T00:54:10.421Z,12.75
2023-01-18T00:56:36.825Z,10.38
2023-01-18T00:59:03.109Z,9.20
2023-01-18T01:01:29.496Z,10.68
2023-01-18T01:04:14.346Z,11.15
2023-01-18T01:06:47.073Z,10.60
2023-01-18T01:09:15.093Z,7.82
2023-01-18T01:12:01.495Z,9.27
2023-01-18T01:14:46.258Z,9.98
2023-01-18T01:17:30.919Z,10.07
2023-01-18T01:20:15.750Z,10.20
2023-01-18T01:23:00.634Z,10.45
2023-01-18T01:25:45.844Z,12.80
2023-01-18T01:28:12.217Z,9.93
2023-01-18T01:30:38.585Z,9.15
2023-01-18T01:33:04.917Z,8.02
2023-01-18T01:35:31.192Z,6.75
2023-01-18T01:37:57.485Z,6.03
2023-01-18T01:40:24.206Z,5.32
2023-01-18T01:42:50.467Z,6.80
2023-01-18T01:45:19.505Z,4.95
2023-01-18T01:47:46.460Z,5.63
2023-01-18T01:50:17.813Z,5.18
2023-01-18T01:52:45.668Z,4.93
2023-01-18T01:55:15.688Z,6.07
2023-01-18T01:57:41.949Z,4.85
2023-01-18T02:00:10.624Z,9.65
2023-01-18T02:02:40.095Z,6.80
2023-01-18T02:05:07.761Z,7.72
2023-01-18T02:07:34.247Z,5.80
2023-01-18T02:10:01.390Z,6.57
2023-01-18T02:12:28.687Z,10.18
2023-01-18T02:14:55.621Z,3.55
2023-01-18T02:17:38.448Z,4.18
2023-01-18T02:20:24.260Z,6.05
2023-01-18T02:23:15.462Z,4.72
2023-01-18T02:26:00.367Z,3.70
2023-01-18T02:28:37.563Z,5.85
2023-01-18T02:31:19.863Z,5.50
2023-01-18T02:33:58.416Z,4.60
2023-01-18T02:36:31.634Z,4.93
2023-01-18T02:39:03.780Z,8.88
2023-01-18T02:42:02.190Z,4.90
2023-01-18T02:44:55.674Z,4.45
2023-01-18T02:47:23.211Z,6.60
2023-01-18T02:49:49.500Z,6.25
2023-01-18T02:52:42.196Z,4.88
2023-01-18T02:55:11.774Z,5.88
2023-01-18T02:57:38.457Z,8.80
2023-01-18T03:00:06.752Z,6.85
2023-01-18T03:02:33.264Z,5.75
2023-01-18T03:05:00.227Z,6.75
2023-01-18T03:07:29.020Z,8.55
2023-01-18T03:09:56.044Z,8.32
2023-01-18T03:12:55.446Z,4.70
2023-01-18T03:15:21.903Z,4.28
2023-01-18T03:17:53.033Z,4.80
2023-01-18T03:20:25.615Z,4.82
2023-01-18T03:23:22.361Z,6.60
2023-01-18T03:25:50.118Z,6.22
2023-01-18T03:28:37.829Z,5.38
2023-01-18T03:31:24.676Z,7.95
2023-01-18T03:33:54.888Z,7.00
2023-01-18T03:36:27.041Z,9.05
2023-01-18T03:38:55.725Z,4.65
2023-01-18T03:41:24.717Z,4.28
2023-01-18T03:43:52.201Z,6.30
2023-01-18T03:46:20.701Z,10.32
2023-01-18T03:48:47.053Z,5.55
2023-01-18T03:51:13.287Z,5.63
2023-01-18T03:53:53.524Z,5.53
2023-01-18T03:56:32.149Z,5.03
2023-01-18T03:59:00.723Z,6.68
2023-01-18T04:01:27.905Z,8.25
2023-01-18T04:03:54.270Z,5.30
2023-01-18T04:06:22.754Z,8.68
2023-01-18T04:08:50.155Z,11.35
2023-01-18T04:11:16.641Z,5.30
2023-01-18T04:13:42.974Z,6.57
2023-01-18T04:16:09.363Z,6.20
2023-01-18T04:18:35.660Z,6.40
2023-01-18T04:21:01.950Z,4.28
2023-01-18T04:23:28.464Z,6.03
2023-01-18T04:25:54.775Z,5.10
2023-01-18T04:28:25.358Z,8.50
2023-01-18T04:30:52.643Z,3.75
2023-01-18T04:33:20.551Z,7.43
2023-01-18T04:35:47.464Z,5.35
2023-01-18T04:38:14.112Z,8.00
2023-01-18T04:40:40.377Z,7.20
2023-01-18T04:43:06.653Z,3.70
2023-01-18T04:45:32.954Z,5.38
2023-01-18T04:47:59.533Z,3.28
2023-01-18T04:50:25.808Z,6.05
2023-01-18T04:52:52.122Z,5.38
2023-01-18T04:55:18.602Z,6.15
2023-01-18T04:57:45.512Z,6.15
2023-01-18T05:00:12.798Z,4.47
2023-01-18T05:02:39.266Z,5.28
2023-01-18T05:05:05.929Z,5.38
2023-01-18T05:07:33.799Z,5.00
2023-01-18T05:10:00.699Z,6.57
2023-01-18T05:12:27.629Z,6.53
2023-01-18T05:14:54.013Z,4.28
2023-01-18T05:17:20.375Z,8.90
2023-01-18T05:19:48.346Z,3.90
2023-01-18T05:22:14.729Z,4.55
2023-01-18T05:24:40.984Z,4.57
2023-01-18T05:27:07.235Z,4.63
2023-01-18T05:29:33.509Z,7.45
2023-01-18T05:31:59.788Z,4.72
2023-01-18T05:34:27.158Z,7.85
2023-01-18T05:36:53.467Z,3.90
2023-01-18T05:39:19.780Z,4.55
2023-01-18T05:41:46.016Z,2.97
2023-01-18T05:44:12.360Z,2.90
2023-01-18T05:46:38.679Z,4.15
2023-01-18T05:49:04.986Z,5.07
2023-01-18T05:51:31.263Z,5.18
2023-01-18T05:53:57.534Z,6.38
2023-01-18T05:56:23.874Z,8.25
2023-01-18T05:58:50.131Z,9.40
2023-01-18T06:01:16.544Z,7.50
2023-01-18T06:03:42.921Z,8.35
2023-01-18T06:06:09.319Z,10.98
2023-01-18T06:08:35.902Z,5.45
2023-01-18T06:11:02.580Z,8.10
2023-01-18T06:13:30.259Z,5.68
2023-01-18T06:15:57.870Z,7.85
2023-01-18T06:18:24.888Z,3.92
2023-01-18T06:20:54.983Z,7.45
2023-01-18T06:23:21.327Z,6.30
2023-01-18T06:25:47.688Z,8.15
2023-01-18T06:28:14.068Z,8.50
2023-01-18T06:30:42.630Z,7.20
2023-01-18T06:33:09.978Z,6.30
2023-01-18T06:35:36.336Z,8.00
2023-01-18T06:38:03.292Z,7.57
2023-01-18T06:40:29.807Z,5.60
2023-01-18T06:42:56.417Z,6.07
2023-01-18T06:45:23.120Z,6.68
2023-01-18T06:47:49.456Z,6.05
2023-01-18T06:50:16.538Z,4.60
2023-01-18T06:52:43.835Z,6.38
2023-01-18T06:55:10.774Z,5.80
2023-01-18T06:57:37.116Z,7.78
2023-01-18T07:00:06.469Z,5.30
2023-01-18T07:02:33.453Z,5.43
2023-01-18T07:04:59.996Z,5.53
2023-01-18T07:07:26.303Z,3.72
2023-01-18T07:09:52.584Z,9.20
2023-01-18T07:12:19.032Z,8.93
2023-01-18T07:14:45.368Z,4.65
2023-01-18T07:17:11.635Z,6.22
2023-01-18T07:19:37.900Z,6.10
2023-01-18T07:22:04.366Z,6.93
2023-01-18T07:24:30.913Z,5.55
2023-01-18T07:26:59.522Z,11.80
2023-01-18T07:29:25.841Z,6.97
2023-01-18T07:31:52.151Z,6.43
2023-01-18T07:34:18.480Z,7.68
2023-01-18T07:36:44.923Z,10.93
2023-01-18T07:39:11.310Z,7.05
2023-01-18T07:41:38.029Z,8.85
2023-01-18T07:44:04.950Z,11.63
2023-01-18T07:46:31.308Z,7.30
2023-01-18T07:48:57.703Z,8.80
2023-01-18T07:51:24.157Z,10.38
2023-01-18T07:53:53.824Z,7.13
2023-01-18T07:56:20.526Z,8.27
2023-01-18T07:58:46.829Z,6.28
2023-01-18T08:01:15.110Z,5.03
2023-01-18T08:03:42.205Z,10.38
2023-01-18T08:06:09.113Z,7.88
2023-01-18T08:08:36.163Z,9.02
2023-01-18T08:11:03.888Z,10.05
2023-01-18T08:13:30.444Z,7.10
2023-01-18T08:15:59.141Z,10.85
2023-01-18T08:18:25.528Z,10.98
2023-01-18T08:20:54.327Z,11.05
2023-01-18T08:23:21.380Z,9.52
2023-01-18T08:25:48.394Z,7.22
2023-01-18T08:28:14.841Z,7.15
2023-01-18T08:30:42.771Z,6.30
2023-01-18T08:33:09.480Z,11.68
2023-01-18T08:35:40.479Z,5.82
2023-01-18T08:38:06.734Z,6.50
2023-01-18T08:40:33.026Z,6.75
2023-01-18T08:43:01.081Z,5.45
2023-01-18T08:45:27.880Z,8.77
2023-01-18T08:48:07.437Z,8.10
2023-01-18T08:50:34.357Z,6.00
2023-01-18T08:53:02.546Z,8.75
2023-01-18T08:55:29.791Z,6.50
2023-01-18T08:57:57.496Z,6.60
2023-01-18T09:00:30.072Z,8.38
2023-01-18T09:02:56.602Z,6.68
2023-01-18T09:05:24.630Z,12.60
2023-01-18T09:07:54.819Z,7.05
2023-01-18T09:10:21.388Z,9.90
2023-01-18T09:12:48.023Z,7.85
2023-01-18T09:15:14.377Z,5.80
2023-01-18T09:17:40.700Z,6.00
2023-01-18T09:20:09.577Z,5.97
2023-01-18T09:22:36.592Z,5.90
2023-01-18T09:25:03.573Z,7.93
2023-01-18T09:27:29.892Z,8.52
2023-01-18T09:29:56.197Z,5.57
2023-01-18T09:32:22.635Z,7.28
2023-01-18T09:34:50.686Z,6.05
2023-01-18T09:37:17.859Z,4.32
2023-01-18T09:39:51.883Z,7.47
2023-01-18T09:42:21.012Z,4.28
2023-01-18T09:44:49.163Z,5.53
2023-01-18T09:47:21.776Z,9.25
2023-01-18T09:49:54.854Z,5.40
2023-01-18T09:52:24.009Z,9.32
2023-01-18T09:54:53.833Z,10.35
2023-01-18T09:57:26.499Z,7.13
2023-01-18T09:59:57.326Z,8.10
2023-01-18T10:02:35.863Z,10.55
2023-01-18T10:05:04.809Z,7.68
2023-01-18T10:07:33.877Z,9.20
2023-01-18T10:10:01.033Z,7.15
2023-01-18T10:12:38.941Z,9.13
2023-01-18T10:15:17.365Z,8.52
2023-01-18T10:17:44.953Z,8.80
2023-01-18T10:20:34.531Z,9.70
2023-01-18T10:23:02.877Z,13.20
2023-01-18T10:25:36.516Z,8.57
2023-01-18T10:28:25.271Z,9.20
2023-01-18T10:31:10.251Z,8.98
2023-01-18T10:33:42.115Z,9.10
2023-01-18T10:36:16.794Z,9.95
2023-01-18T10:38:43.878Z,7.32
2023-01-18T10:41:16.998Z,8.10
2023-01-18T10:43:44.487Z,6.63
2023-01-18T10:46:15.261Z,5.97
2023-01-18T10:48:45.124Z,6.85
2023-01-18T10:51:23.182Z,8.85
2023-01-18T10:53:49.457Z,8.57
2023-01-18T10:56:24.236Z,10.80
2023-01-18T10:58:50.551Z,10.00
2023-01-18T11:01:17.211Z,9.00
2023-01-18T11:03:45.213Z,8.02
2023-01-18T11:06:11.737Z,11.35
2023-01-18T11:08:38.030Z,9.77
2023-01-18T11:11:04.471Z,9.07
2023-01-18T11:13:32.777Z,9.82
2023-01-18T11:16:18.584Z,8.88
2023-01-18T11:18:55.481Z,9.93
2023-01-18T11:21:22.412Z,11.00
2023-01-18T11:23:49.626Z,11.40
2023-01-18T11:26:19.070Z,11.75
2023-01-18T11:28:51.570Z,12.05
2023-01-18T11:31:22.288Z,13.02
2023-01-18T11:33:53.550Z,10.63
2023-01-18T11:36:21.225Z,12.32
2023-01-18T11:38:47.899Z,12.77
2023-01-18T11:41:16.293Z,10.48
2023-01-18T11:43:48.144Z,14.75
2023-01-18T11:46:17.565Z,16.02
2023-01-18T11:48:48.480Z,19.63
2023-01-18T11:51:27.850Z,18.58
2023-01-18T11:53:59.387Z,16.88
2023-01-18T11:56:31.911Z,21.23
2023-01-18T11:58:58.689Z,17.65
2023-01-18T12:01:24.956Z,20.35
2023-01-18T12:04:11.712Z,19.45
2023-01-18T12:06:57.485Z,15.68
2023-01-18T12:09:29.479Z,17.80
2023-01-18T12:11:59.516Z,21.40
2023-01-18T12:14:56.156Z,16.08
2023-01-18T12:17:28.818Z,15.18
2023-01-18T12:19:55.064Z,14.95
2023-01-18T12:22:30.656Z,14.48
2023-01-18T12:25:18.351Z,13.18
2023-01-18T12:27:47.627Z,16.30
2023-01-18T12:30:18.894Z,18.38
2023-01-18T12:33:02.136Z,14.63
2023-01-18T12:35:37.951Z,15.25
2023-01-18T12:38:17.443Z,16.92
2023-01-18T12:40:43.697Z,14.60
2023-01-18T12:43:10.051Z,13.85
2023-01-18T12:45:38.808Z,13.18
2023-01-18T12:48:08.876Z,16.27
2023-01-18T12:50:37.248Z,14.35
2023-01-18T12:53:13.195Z,13.25
2023-01-18T12:55:42.808Z,16.63
2023-01-18T12:58:10.289Z,16.23
2023-01-18T13:00:37.804Z,16.05
2023-01-18T13:03:06.054Z,15.48
2023-01-18T13:05:38.903Z,16.85
2023-01-18T13:08:31.575Z,17.48
2023-01-18T13:11:06.442Z,14.73
2023-01-18T13:13:33.364Z,15.05
2023-01-18T13:16:06.341Z,13.88
2023-01-18T13:18:55.560Z,14.73
2023-01-18T13:21:37.212Z,13.30
2023-01-18T13:24:15.840Z,16.27
2023-01-18T13:26:42.862Z,12.88
2023-01-18T13:29:23.955Z,12.73
2023-01-18T13:31:50.516Z,11.70
2023-01-18T13:34:21.818Z,10.90
2023-01-18T13:36:49.046Z,13.90
2023-01-18T13:39:16.524Z,11.77
2023-01-18T13:42:01.357Z,10.82
2023-01-18T13:44:32.277Z,8.70
2023-01-18T13:47:01.428Z,12.57
2023-01-18T13:49:37.294Z,8.73
2023-01-18T13:52:23.093Z,10.82
2023-01-18T13:54:57.541Z,12.70
2023-01-18T13:57:24.598Z,10.52
2023-01-18T13:59:51.840Z,10.00
2023-01-18T14:02:36.934Z,13.57
2023-01-18T14:05:07.960Z,12.30
2023-01-18T14:07:40.185Z,10.82
2023-01-18T14:10:08.167Z,13.30
2023-01-18T14:12:51.347Z,12.98
2023-01-18T14:15:40.950Z,11.70
2023-01-18T14:18:27.554Z,12.23
2023-01-18T14:21:06.149Z,14.52
2023-01-18T14:23:40.939Z,15.55
2023-01-18T14:26:11.964Z,15.80
2023-01-18T14:28:46.690Z,18.55
2023-01-18T14:31:16.107Z,16.23
2023-01-18T14:33:42.508Z,17.30
2023-01-18T14:36:19.048Z,20.67
2023-01-18T14:38:45.383Z,18.55
2023-01-18T14:41:14.997Z,20.27
2023-01-18T14:43:42.493Z,17.48
2023-01-18T14:46:16.664Z,18.95
2023-01-18T14:48:48.325Z,23.63
2023-01-18T14:51:19.521Z,19.00
2023-01-18T14:53:52.744Z,18.17
2023-01-18T14:56:24.335Z,18.38
2023-01-18T14:58:58.362Z,22.65
2023-01-18T15:01:32.990Z,18.60
2023-01-18T15:04:00.880Z,23.92
2023-01-18T15:06:33.409Z,15.25
2023-01-18T15:08:59.941Z,16.42
2023-01-18T15:11:26.636Z,18.10
2023-01-18T15:13:54.232Z,20.65
2023-01-18T15:16:33.038Z,16.42
2023-01-18T15:19:01.464Z,17.58
2023-01-18T15:21:29.690Z,16.02
2023-01-18T15:24:01.774Z,16.77
2023-01-18T15:26:35.263Z,17.80
2023-01-18T15:29:13.285Z,16.52
2023-01-18T15:31:53.915Z,15.38
2023-01-18T15:34:26.923Z,20.88
2023-01-18T15:36:54.693Z,12.25
2023-01-18T15:39:20.996Z,14.80
2023-01-18T15:41:47.628Z,15.48
2023-01-18T15:44:32.780Z,18.15
2023-01-18T15:46:59.151Z,16.15
2023-01-18T15:49:25.433Z,18.65
2023-01-18T15:51:56.847Z,17.25
2023-01-18T15:54:25.460Z,13.73
2023-01-18T15:56:51.890Z,10.23
2023-01-18T15:59:22.801Z,13.38
2023-01-18T16:02:12.983Z,13.65
2023-01-18T16:04:40.528Z,12.75
2023-01-18T16:07:25.526Z,12.43
2023-01-18T16:10:30.837Z,12.27
2023-01-18T16:13:15.734Z,13.98
2023-01-18T16:15:42.238Z,11.80
2023-01-18T16:18:11.666Z,12.32
2023-01-18T16:20:38.161Z,16.02
2023-01-18T16:23:16.637Z,13.18
2023-01-18T16:25:43.461Z,13.63
2023-01-18T16:28:09.841Z,14.27
2023-01-18T16:30:38.089Z,16.45
2023-01-18T16:33:15.659Z,15.65
2023-01-18T16:35:42.096Z,12.23
2023-01-18T16:38:12.227Z,10.10
2023-01-18T16:40:39.420Z,12.13
2023-01-18T16:43:07.534Z,14.52
2023-01-18T16:45:35.204Z,10.88
2023-01-18T16:48:02.167Z,11.38
2023-01-18T16:50:28.694Z,16.13
2023-01-18T16:52:55.299Z,13.85
2023-01-18T16:55:22.581Z,18.15
2023-01-18T16:57:50.843Z,17.90
2023-01-18T17:00:22.012Z,20.15
2023-01-18T17:02:48.512Z,29.13
2023-01-18T17:05:16.540Z,43.95
2023-01-18T17:07:43.263Z,37.05
2023-01-18T17:10:20.507Z,36.05
2023-01-18T17:12:47.001Z,26.27
2023-01-18T17:15:13.355Z,27.98
2023-01-18T17:17:40.271Z,30.13
2023-01-18T17:20:26.938Z,25.83
2023-01-18T17:22:53.789Z,28.25
2023-01-18T17:25:20.423Z,27.20
2023-01-18T17:27:47.005Z,26.55
2023-01-18T17:30:14.227Z,28.30
2023-01-18T17:32:40.508Z,22.90
2023-01-18T17:35:07.094Z,25.33
2023-01-18T17:37:35.410Z,22.45
2023-01-18T17:40:16.415Z,22.25
2023-01-18T17:42:46.744Z,20.95
2023-01-18T17:45:14.379Z,23.00
2023-01-18T17:47:41.768Z,22.75
2023-01-18T17:50:11.780Z,20.58
2023-01-18T17:52:39.176Z,19.25
2023-01-18T17:55:06.349Z,19.23
2023-01-18T17:57:32.994Z,16.48
2023-01-18T17:59:59.303Z,17.90
2023-01-18T18:02:26.406Z,17.58
2023-01-18T18:04:52.721Z,21.15
2023-01-18T18:07:18.981Z,18.92
2023-01-18T18:09:45.232Z,21.90
2023-01-18T18:12:11.643Z,25.38
2023-01-18T18:14:38.636Z,26.00
2023-01-18T18:17:05.686Z,27.08
2023-01-18T18:19:32.480Z,29.25
2023-01-18T18:21:59.178Z,22.52
2023-01-18T18:24:25.517Z,27.63
2023-01-18T18:26:51.824Z,36.10
2023-01-18T18:29:18.352Z,40.97
2023-01-18T18:31:44.724Z,54.40
2023-01-18T18:34:11.401Z,53.08
2023-01-18T18:36:38.019Z,40.97
2023-01-18T18:39:05.100Z,38.85
2023-01-18T18:41:31.746Z,35.22
2023-01-18T18:43:58.245Z,35.20
2023-01-18T18:46:24.842Z,27.52
2023-01-18T18:48:54.867Z,27.60
2023-01-18T18:51:21.719Z,26.10
2023-01-18T18:53:48.277Z,28.40
2023-01-18T18:56:14.623Z,24.85
2023-01-18T18:58:41.147Z,24.58
2023-01-18T19:01:16.718Z,23.70
2023-01-18T19:03:43.110Z,33.17
2023-01-18T19:06:10.364Z,27.23
2023-01-18T19:08:36.628Z,30.52
2023-01-18T19:11:02.951Z,39.92
2023-01-18T19:13:29.302Z,35.78
2023-01-18T19:15:56.897Z,30.45
2023-01-18T19:18:24.366Z,28.10
2023-01-18T19:20:51.176Z,28.30
2023-01-18T19:23:17.728Z,27.75
2023-01-18T19:25:44.292Z,28.73
2023-01-18T19:28:10.623Z,29.02
2023-01-18T19:30:40.420Z,26.25
2023-01-18T19:33:07.209Z,22.33
2023-01-18T19:35:38.661Z,25.85
2023-01-18T19:38:06.056Z,22.92
2023-01-18T19:40:32.612Z,27.48
2023-01-18T19:42:59.623Z,25.27
2023-01-18T19:45:28.801Z,25.02
2023-01-18T19:47:56.530Z,20.75
2023-01-18T19:50:23.152Z,23.42
2023-01-18T19:52:50.170Z,24.73
2023-01-18T19:55:16.601Z,22.88
2023-01-18T19:57:42.889Z,25.17
2023-01-18T20:00:09.993Z,29.13
2023-01-18T20:02:39.955Z,30.10
2023-01-18T20:05:06.804Z,31.50
2023-01-18T20:07:33.120Z,30.48
2023-01-18T20:09:59.531Z,27.13
2023-01-18T20:12:29.157Z,23.15
2023-01-18T20:14:55.434Z,25.30
2023-01-18T20:17:21.935Z,23.38
2023-01-18T20:19:50.724Z,23.00
2023-01-18T20:22:17.137Z,23.58
2023-01-18T20:24:44.198Z,24.42
2023-01-18T20:27:16.197Z,21.00
2023-01-18T20:29:43.358Z,23.00
2023-01-18T20:32:16.174Z,22.25
2023-01-18T20:37:11.852Z,20.40
2023-01-18T20:39:38.188Z,21.13
2023-01-18T20:42:04.669Z,20.38
2023-01-18T20:44:31.012Z,21.58
2023-01-18T20:46:57.438Z,19.35
2023-01-18T20:49:33.200Z,18.25
2023-01-18T20:52:04.867Z,24.15
2023-01-18T20:54:31.177Z,19.60
2023-01-18T20:56:58.734Z,22.83
2023-01-18T20:59:25.202Z,21.88
2023-01-18T21:01:52.920Z,22.10
2023-01-18T21:04:20.659Z,27.27
2023-01-18T21:06:47.796Z,25.60
2023-01-18T21:09:14.112Z,21.35
2023-01-18T21:11:40.465Z,22.73
2023-01-18T21:14:07.194Z,24.17
2023-01-18T21:16:33.667Z,22.85
2023-01-18T21:19:00.052Z,23.48
2023-01-18T21:21:31.609Z,22.80
2023-01-18T21:23:58.508Z,23.80
2023-01-18T21:26:24.965Z,24.17
2023-01-18T21:28:51.286Z,22.70
2023-01-18T21:31:17.836Z,26.30
2023-01-18T21:33:44.237Z,24.45
2023-01-18T21:36:14.795Z,25.05
2023-01-18T21:38:41.699Z,24.55
2023-01-18T21:41:26.989Z,23.38
2023-01-18T21:44:16.358Z,23.55
2023-01-18T21:46:46.446Z,25.88
2023-01-18T21:49:47.191Z,20.95
2023-01-18T21:52:37.423Z,23.08
2023-01-18T21:55:03.778Z,20.48
2023-01-18T21:57:30.113Z,23.48
2023-01-18T21:59:56.422Z,19.23
2023-01-18T22:02:22.856Z,21.95
2023-01-18T22:05:03.304Z,20.50
2023-01-18T22:07:31.203Z,19.35
2023-01-18T22:10:06.355Z,15.32
2023-01-18T22:12:36.503Z,15.95
2023-01-18T22:15:06.378Z,15.73
2023-01-18T22:17:32.713Z,17.90
2023-01-18T22:19:59.708Z,15.38
2023-01-18T22:22:26.159Z,13.23
2023-01-18T22:24:52.433Z,12.52
2023-01-18T22:27:18.705Z,13.77
2023-01-18T22:29:45.063Z,14.00
2023-01-18T22:32:11.414Z,12.98
2023-01-18T22:34:37.751Z,16.67
2023-01-18T22:37:04.226Z,14.40
2023-01-18T22:39:30.604Z,14.70
2023-01-18T22:41:57.475Z,14.00
2023-01-18T22:44:23.910Z,15.43
2023-01-18T22:46:50.356Z,15.95
2023-01-18T22:49:16.879Z,14.13
2023-01-18T22:51:43.162Z,15.25
2023-01-18T22:54:09.579Z,12.77
2023-01-18T22:56:35.965Z,13.88
2023-01-18T22:59:02.313Z,14.10
2023-01-18T23:01:30.843Z,15.57
2023-01-18T23:03:58.697Z,14.60
2023-01-18T23:06:26.107Z,14.65
2023-01-18T23:08:54.196Z,16.40
2023-01-18T23:11:22.266Z,18.20
2023-01-18T23:14:08.067Z,14.65
2023-01-18T23:16:53.388Z,14.23
2023-01-18T23:19:19.754Z,14.63
2023-01-18T23:21:46.093Z,17.50
2023-01-18T23:24:12.442Z,16.75
2023-01-18T23:26:38.762Z,16.75
2023-01-18T23:29:05.473Z,12.73
2023-01-18T23:31:31.932Z,19.25
2023-01-18T23:33:58.320Z,15.00
2023-01-18T23:36:24.641Z,17.77
2023-01-18T23:39:09.364Z,15.68
2023-01-18T23:41:54.239Z,16.33
2023-01-18T23:44:39.085Z,16.95
2023-01-18T23:47:23.900Z,14.32
2023-01-18T23:50:08.779Z,14.82
2023-01-18T23:52:53.642Z,17.48
2023-01-18T23:55:19.946Z,16.50
2023-01-18T23:57:46.231Z,14.90
